createdAt,value
2018-09-24T00:01:27.828Z,92.40
2018-09-24T00:06:25.211Z,92.33
2018-09-24T00:11:28.025Z,92.01
2018-09-24T00:16:25.463Z,91.89
2018-09-24T00:21:22.831Z,92.50
2018-09-24T00:26:20.209Z,91.99
2018-09-24T00:31:17.571Z,91.83
2018-09-24T00:36:14.932Z,91.67
2018-09-24T00:41:17.178Z,91.96
2018-09-24T00:46:14.895Z,91.44
2018-09-24T00:51:12.259Z,91.67
2018-09-24T00:56:09.651Z,91.53
2018-09-24T01:01:07.031Z,91.51
2018-09-24T01:06:04.440Z,91.29
2018-09-24T01:11:05.815Z,90.98
2018-09-24T01:16:03.286Z,90.97
2018-09-24T01:21:01.286Z,90.62
2018-09-24T01:25:58.684Z,91.34
2018-09-24T01:30:56.103Z,91.39
2018-09-24T01:35:53.513Z,90.93
2018-09-24T01:40:51.446Z,91.13
2018-09-24T01:45:48.872Z,91.36
2018-09-24T01:50:46.329Z,91.08
2018-09-24T01:55:48.598Z,90.86
2018-09-24T02:00:45.971Z,90.33
2018-09-24T02:05:43.340Z,90.89
2018-09-24T02:10:40.722Z,90.53
2018-09-24T02:15:38.099Z,91.18
2018-09-24T02:20:44.072Z,90.32
2018-09-24T02:25:41.500Z,91.08
2018-09-24T02:30:38.919Z,90.73
2018-09-24T02:35:36.404Z,91.26
2018-09-24T02:40:33.851Z,91.60
2018-09-24T02:45:31.268Z,91.25
2018-09-24T02:50:35.478Z,91.21
2018-09-24T02:55:32.871Z,90.91
2018-09-24T03:00:30.288Z,91.22
2018-09-24T03:05:27.714Z,92.98
2018-09-24T03:10:25.129Z,90.83
2018-09-24T03:15:22.546Z,90.85
2018-09-24T03:20:21.252Z,90.66
2018-09-24T03:25:19.248Z,91.90
2018-09-24T03:30:16.715Z,92.22
2018-09-24T03:35:14.137Z,93.04
2018-09-24T03:40:11.588Z,94.00
2018-09-24T03:45:09.008Z,94.21
2018-09-24T03:50:06.439Z,93.14
2018-09-24T03:55:03.896Z,91.79
2018-09-24T04:00:01.383Z,92.64
2018-09-24T04:05:04.351Z,93.67
2018-09-24T04:10:07.421Z,93.20
2018-09-24T04:15:10.388Z,93.34
2018-09-24T04:20:13.415Z,93.62
2018-09-24T04:25:16.431Z,92.25
2018-09-24T04:30:19.536Z,91.72
2018-09-24T04:35:22.524Z,92.26
2018-09-24T04:40:25.736Z,92.99
2018-09-24T04:45:28.752Z,92.89
2018-09-24T04:50:31.737Z,93.43
2018-09-24T04:55:34.635Z,91.39
2018-09-24T05:00:37.765Z,92.79
2018-09-24T05:05:40.676Z,92.66
2018-09-24T05:10:43.703Z,93.15
2018-09-24T05:15:46.628Z,92.32
2018-09-24T05:20:49.699Z,92.77
2018-09-24T05:25:53.600Z,93.48
2018-09-24T05:30:56.710Z,93.90
2018-09-24T05:35:59.766Z,94.23
2018-09-24T05:41:03.705Z,91.41
2018-09-24T05:46:06.876Z,91.18
2018-09-24T05:51:10.176Z,88.31
2018-09-24T05:56:13.123Z,77.50
2018-09-24T06:01:16.214Z,72.99
2018-09-24T06:06:19.209Z,69.70
2018-09-24T06:11:27.487Z,64.60
2018-09-24T06:16:30.631Z,63.68
2018-09-24T06:21:33.676Z,63.76
2018-09-24T06:26:36.836Z,58.19
2018-09-24T06:31:39.947Z,58.02
2018-09-24T06:36:42.984Z,57.44
2018-09-24T06:41:55.588Z,69.78
2018-09-24T06:46:58.655Z,75.65
2018-09-24T06:52:01.633Z,82.07
2018-09-24T06:57:04.711Z,84.26
2018-09-24T07:02:07.828Z,86.27
2018-09-24T07:07:11.022Z,85.42
2018-09-24T07:12:14.787Z,85.31
2018-09-24T07:17:17.819Z,85.49
2018-09-24T07:22:20.903Z,85.41
2018-09-24T07:27:23.992Z,84.30
2018-09-24T07:32:27.020Z,83.48
2018-09-24T07:37:29.952Z,82.94
2018-09-24T07:42:33.088Z,83.98
2018-09-24T07:47:36.202Z,81.65
2018-09-24T07:52:39.364Z,82.52
2018-09-24T07:57:42.392Z,81.20
2018-09-24T08:02:47.805Z,79.92
2018-09-24T08:07:52.189Z,78.08
2018-09-24T08:12:55.369Z,80.81
2018-09-24T08:17:58.250Z,79.68
2018-09-24T08:23:01.356Z,78.42
2018-09-24T08:28:04.317Z,76.78
2018-09-24T08:33:07.444Z,76.06
2018-09-24T08:38:10.727Z,75.93
2018-09-24T08:43:13.839Z,74.13
2018-09-24T08:48:16.859Z,73.40
2018-09-24T08:53:20.555Z,71.93
2018-09-24T08:58:23.498Z,71.27
2018-09-24T09:03:26.611Z,71.94
2018-09-24T09:08:29.662Z,70.23
2018-09-24T09:13:39.508Z,69.39
2018-09-24T09:18:42.633Z,69.87
2018-09-24T09:23:46.336Z,69.14
2018-09-24T09:28:50.396Z,66.30
2018-09-24T09:33:53.554Z,67.42
2018-09-24T09:38:56.662Z,65.47
2018-09-24T09:44:00.671Z,65.68
2018-09-24T09:49:03.684Z,63.84
2018-09-24T09:54:06.689Z,64.19
2018-09-24T09:59:09.836Z,63.51
2018-09-24T10:04:13.951Z,64.33
2018-09-24T10:09:16.937Z,63.50
2018-09-24T10:14:20.068Z,62.25
2018-09-24T10:19:23.228Z,59.65
2018-09-24T10:24:26.580Z,62.23
2018-09-24T10:29:29.643Z,60.22
2018-09-24T10:34:32.731Z,58.50
2018-09-24T10:39:35.775Z,60.23
2018-09-24T10:44:38.795Z,57.26
2018-09-24T10:49:41.763Z,58.43
2018-09-24T10:54:45.311Z,60.04
2018-09-24T10:59:48.315Z,56.61
2018-09-24T11:04:51.373Z,56.37
2018-09-24T11:09:54.475Z,56.61
2018-09-24T11:14:57.684Z,55.31
2018-09-24T11:20:00.683Z,55.32
2018-09-24T11:25:03.799Z,58.29
2018-09-24T11:30:06.932Z,57.31
2018-09-24T11:35:10.172Z,56.35
2018-09-24T11:40:13.251Z,56.07
2018-09-24T11:45:16.372Z,54.80
2018-09-24T11:50:19.575Z,55.73
2018-09-24T11:55:22.723Z,54.03
2018-09-24T12:00:25.592Z,54.03
2018-09-24T12:05:28.623Z,53.24
2018-09-24T12:10:31.647Z,53.59
2018-09-24T12:15:34.636Z,55.28
2018-09-24T12:20:37.861Z,54.11
2018-09-24T12:25:40.840Z,67.70
2018-09-24T12:30:43.814Z,74.01
2018-09-24T12:35:46.915Z,75.45
2018-09-24T12:40:49.868Z,76.45
2018-09-24T12:45:52.899Z,74.06
2018-09-24T12:50:58.494Z,76.37
2018-09-24T12:56:01.612Z,78.38
2018-09-24T13:01:05.140Z,78.41
2018-09-24T13:07:11.621Z,79.04
2018-09-24T13:12:15.559Z,74.31
2018-09-24T13:17:18.523Z,77.76
2018-09-24T13:22:21.568Z,78.00
2018-09-24T13:27:24.742Z,73.87
2018-09-24T13:32:27.895Z,69.77
2018-09-24T13:37:30.940Z,69.99
2018-09-24T13:42:35.405Z,68.27
2018-09-24T13:47:38.436Z,66.75
2018-09-24T13:52:41.450Z,65.71
2018-09-24T13:57:44.487Z,66.71
2018-09-24T14:02:47.698Z,63.83
2018-09-24T14:07:50.838Z,67.02
2018-09-24T14:12:54.854Z,68.29
2018-09-24T14:17:58.170Z,65.07
2018-09-24T14:23:01.434Z,64.42
2018-09-24T14:28:14.062Z,63.20
2018-09-24T14:33:17.247Z,62.31
2018-09-24T14:38:20.519Z,60.70
2018-09-24T14:43:23.538Z,61.42
2018-09-24T14:48:26.878Z,60.42
2018-09-24T14:53:31.107Z,61.61
2018-09-24T14:58:35.718Z,60.56
2018-09-24T15:03:43.528Z,60.42
2018-09-24T15:08:48.513Z,61.35
2018-09-24T15:13:51.805Z,63.13
2018-09-24T15:18:56.130Z,64.44
2018-09-24T15:24:01.012Z,64.84
2018-09-24T15:29:06.656Z,65.45
2018-09-24T15:34:10.868Z,65.15
2018-09-24T15:39:15.427Z,65.13
2018-09-24T15:44:19.032Z,64.12
2018-09-24T15:49:22.263Z,64.30
2018-09-24T15:59:41.314Z,65.66
2018-09-24T16:04:44.236Z,65.52
2018-09-24T16:09:48.204Z,66.71
2018-09-24T16:14:52.498Z,66.16
2018-09-24T16:19:55.888Z,66.78
2018-09-24T16:25:00.048Z,67.95
2018-09-24T16:30:05.475Z,72.48
2018-09-24T16:35:08.472Z,78.72
2018-09-24T16:40:11.591Z,79.56
2018-09-24T16:45:14.899Z,78.97
2018-09-24T16:50:17.900Z,78.18
2018-09-24T16:55:21.791Z,79.85
2018-09-24T17:00:24.805Z,78.75
2018-09-24T17:05:27.851Z,81.92
2018-09-24T17:10:30.815Z,83.80
2018-09-24T17:15:34.024Z,78.93
2018-09-24T17:20:37.027Z,80.80
2018-09-24T17:25:40.100Z,77.30
2018-09-24T17:30:43.744Z,79.06
2018-09-24T17:35:46.880Z,78.01
2018-09-24T17:40:50.539Z,79.88
2018-09-24T17:45:54.575Z,80.81
2018-09-24T17:50:57.756Z,81.98
2018-09-24T17:56:03.136Z,83.05
2018-09-24T18:01:07.063Z,84.96
2018-09-24T18:06:10.913Z,86.27
2018-09-24T18:11:16.418Z,86.78
2018-09-24T18:16:20.339Z,87.70
2018-09-24T18:21:26.268Z,88.55
2018-09-24T18:26:31.096Z,89.14
2018-09-24T18:31:35.504Z,89.65
2018-09-24T18:36:39.531Z,88.66
2018-09-24T18:41:43.373Z,88.61
2018-09-24T18:46:47.867Z,89.38
2018-09-24T18:51:51.948Z,89.24
2018-09-24T18:56:56.976Z,89.75
2018-09-24T19:02:02.608Z,90.68
2018-09-24T19:07:08.145Z,90.76
2018-09-24T19:12:11.771Z,91.53
2018-09-24T19:17:16.054Z,89.33
2018-09-24T19:22:19.472Z,90.38
2018-09-24T19:27:24.036Z,90.95
2018-09-24T19:32:27.907Z,91.55
2018-09-24T19:37:32.050Z,90.96
2018-09-24T19:42:36.401Z,89.96
2018-09-24T19:47:40.518Z,91.09
2018-09-24T19:52:44.674Z,91.52
2018-09-24T19:57:49.027Z,90.06
2018-09-24T20:02:53.277Z,89.66
2018-09-24T20:07:58.565Z,89.52
2018-09-24T20:13:02.988Z,89.33
2018-09-24T20:18:07.453Z,88.80
2018-09-24T20:23:11.943Z,88.87
2018-09-24T20:28:16.574Z,89.91
2018-09-24T20:33:20.732Z,90.69
2018-09-24T20:38:25.141Z,88.92
2018-09-24T20:43:32.233Z,89.96
2018-09-24T20:48:37.550Z,90.98
2018-09-24T20:53:42.281Z,91.95
2018-09-24T20:58:46.706Z,89.67
2018-09-24T21:03:50.902Z,91.23
2018-09-24T21:08:55.284Z,91.99
2018-09-24T21:13:59.885Z,92.62
2018-09-24T21:19:04.749Z,92.91
2018-09-24T21:24:09.166Z,93.08
2018-09-24T21:29:14.045Z,93.42
2018-09-24T21:34:18.481Z,93.39
2018-09-24T21:39:22.795Z,93.65
2018-09-24T21:44:28.701Z,94.15
2018-09-24T21:49:33.198Z,94.13
2018-09-24T21:54:38.311Z,94.33
2018-09-24T21:59:43.125Z,94.19
2018-09-24T22:04:54.453Z,94.24
2018-09-24T22:10:00.017Z,94.37
2018-09-24T22:15:03.761Z,94.02
2018-09-24T22:20:07.619Z,93.97
2018-09-24T22:25:11.358Z,94.41
2018-09-24T22:30:15.046Z,94.34
2018-09-24T22:35:18.902Z,94.35
2018-09-24T22:40:22.624Z,94.37
2018-09-24T22:45:26.448Z,93.92
2018-09-24T22:50:30.208Z,94.08
2018-09-24T22:55:33.981Z,94.32
2018-09-24T23:00:37.621Z,94.32
2018-09-24T23:05:41.520Z,94.17
2018-09-24T23:10:45.277Z,94.16
2018-09-24T23:15:49.226Z,94.34
2018-09-24T23:20:53.002Z,94.17
2018-09-24T23:25:56.878Z,94.05
2018-09-24T23:31:00.859Z,94.02
2018-09-24T23:36:04.491Z,94.39
2018-09-24T23:41:08.341Z,94.24
2018-09-24T23:46:12.201Z,94.35
2018-09-24T23:51:16.148Z,94.16
2018-09-24T23:56:19.953Z,94.28
